createdAt,value
2022-08-30T00:00:48.939Z,19.00
2022-08-30T00:05:44.154Z,18.30
2022-08-30T00:08:11.851Z,18.50
2022-08-30T00:10:40.925Z,18.30
2022-08-30T00:13:10.198Z,18.60
2022-08-30T00:15:37.188Z,19.30
2022-08-30T00:18:04.452Z,19.80
2022-08-30T00:20:32.255Z,19.00
2022-08-30T00:22:59.243Z,19.80
2022-08-30T00:25:26.363Z,19.80
2022-08-30T00:27:53.416Z,19.00
2022-08-30T00:30:20.862Z,20.40
2022-08-30T00:32:47.968Z,20.50
2022-08-30T00:35:16.225Z,21.10
2022-08-30T00:37:44.468Z,21.50
2022-08-30T00:40:12.450Z,21.80
2022-08-30T00:42:39.568Z,21.60
2022-08-30T00:45:15.303Z,22.10
2022-08-30T00:47:42.588Z,18.20
2022-08-30T00:50:09.817Z,21.70
2022-08-30T00:52:38.463Z,21.30
2022-08-30T00:55:05.789Z,21.00
2022-08-30T00:57:33.278Z,21.50
2022-08-30T01:00:00.243Z,20.50
2022-08-30T01:02:28.219Z,20.20
2022-08-30T01:04:55.553Z,21.60
2022-08-30T01:07:22.545Z,22.90
2022-08-30T01:09:49.664Z,21.80
2022-08-30T01:12:17.436Z,23.00
2022-08-30T01:14:45.879Z,23.10
2022-08-30T01:17:13.157Z,22.50
2022-08-30T01:20:09.254Z,23.00
2022-08-30T01:22:51.295Z,23.90
2022-08-30T01:25:23.162Z,20.00
2022-08-30T01:30:17.524Z,23.10
2022-08-30T01:32:45.720Z,23.20
2022-08-30T01:35:14.734Z,21.60
2022-08-30T01:37:41.939Z,22.80
2022-08-30T01:40:09.272Z,24.20
2022-08-30T01:42:36.282Z,24.50
2022-08-30T01:45:04.262Z,23.50
2022-08-30T01:47:31.288Z,24.90
2022-08-30T01:49:58.529Z,25.40
2022-08-30T01:52:26.162Z,26.00
2022-08-30T01:54:53.351Z,28.20
2022-08-30T01:57:22.200Z,27.30
2022-08-30T01:59:50.309Z,26.70
2022-08-30T02:02:19.915Z,27.10
2022-08-30T02:04:47.329Z,27.50
2022-08-30T02:07:14.280Z,27.90
2022-08-30T02:09:44.262Z,28.20
2022-08-30T02:12:13.457Z,26.90
2022-08-30T02:14:40.527Z,28.30
2022-08-30T02:17:08.491Z,27.40
2022-08-30T02:19:35.849Z,28.40
2022-08-30T02:22:02.870Z,27.40
2022-08-30T02:24:30.245Z,28.00
2022-08-30T02:26:57.382Z,27.20
2022-08-30T02:29:24.735Z,26.60
2022-08-30T02:31:52.239Z,25.30
2022-08-30T02:34:19.627Z,26.30
2022-08-30T02:36:46.784Z,26.50
2022-08-30T02:39:14.211Z,27.70
2022-08-30T02:41:41.764Z,27.80
2022-08-30T02:44:09.280Z,26.90
2022-08-30T02:46:36.813Z,26.50
2022-08-30T02:49:23.705Z,25.80
2022-08-30T02:51:51.522Z,27.20
2022-08-30T02:54:20.150Z,27.50
2022-08-30T02:56:48.147Z,27.80
2022-08-30T02:59:15.804Z,26.80
2022-08-30T03:01:43.130Z,30.00
2022-08-30T03:04:10.229Z,30.00
2022-08-30T03:06:37.235Z,29.50
2022-08-30T03:09:04.404Z,29.40
2022-08-30T03:11:31.534Z,31.10
2022-08-30T03:13:58.579Z,29.60
2022-08-30T03:16:25.627Z,31.70
2022-08-30T03:18:52.721Z,29.20
2022-08-30T03:21:19.795Z,31.20
2022-08-30T03:23:47.061Z,31.20
2022-08-30T03:26:15.086Z,31.30
2022-08-30T03:28:42.823Z,30.20
2022-08-30T03:31:10.373Z,30.60
2022-08-30T03:33:40.018Z,29.60
2022-08-30T03:36:07.893Z,30.60
2022-08-30T03:38:35.491Z,31.00
2022-08-30T03:41:02.896Z,30.20
2022-08-30T03:43:33.285Z,29.60
2022-08-30T03:46:01.223Z,30.00
2022-08-30T03:48:28.724Z,31.20
2022-08-30T03:53:25.686Z,31.90
2022-08-30T04:00:49.863Z,32.30
2022-08-30T04:03:18.541Z,32.20
2022-08-30T04:05:46.049Z,31.60
2022-08-30T04:10:40.699Z,32.20
2022-08-30T04:15:35.200Z,30.30
2022-08-30T04:18:02.335Z,30.80
2022-08-30T04:20:29.304Z,30.50
2022-08-30T04:25:28.480Z,30.10
2022-08-30T04:27:56.179Z,31.30
2022-08-30T04:30:23.934Z,30.80
2022-08-30T04:32:54.428Z,31.30
2022-08-30T04:35:24.361Z,30.20
2022-08-30T04:37:51.790Z,31.00
2022-08-30T04:40:19.487Z,31.30
2022-08-30T04:42:47.801Z,31.60
2022-08-30T04:45:16.502Z,32.90
2022-08-30T04:47:44.172Z,33.70
2022-08-30T04:50:12.741Z,34.00
2022-08-30T04:52:40.128Z,36.60
2022-08-30T04:55:08.824Z,37.50
2022-08-30T04:57:36.479Z,36.60
2022-08-30T05:00:05.575Z,36.60
2022-08-30T05:02:32.893Z,35.30
2022-08-30T05:05:19.963Z,35.10
2022-08-30T05:07:46.999Z,35.30
2022-08-30T05:10:13.922Z,32.90
2022-08-30T05:12:41.591Z,33.70
2022-08-30T05:17:37.389Z,32.10
2022-08-30T05:20:05.008Z,31.20
2022-08-30T05:22:32.092Z,29.50
2022-08-30T05:24:59.696Z,29.90
2022-08-30T05:27:26.846Z,29.30
2022-08-30T05:29:55.397Z,29.90
2022-08-30T05:32:22.728Z,29.50
2022-08-30T05:34:51.395Z,31.00
2022-08-30T05:37:18.455Z,31.80
2022-08-30T05:39:51.150Z,33.00
2022-08-30T05:42:18.715Z,32.60
2022-08-30T05:44:45.710Z,33.90
2022-08-30T05:47:12.804Z,33.90
2022-08-30T05:49:39.865Z,34.30
2022-08-30T05:52:06.970Z,34.90
2022-08-30T05:54:34.271Z,34.40
2022-08-30T05:57:01.965Z,35.00
2022-08-30T05:59:28.934Z,34.40
2022-08-30T06:01:59.049Z,33.60
2022-08-30T06:04:26.092Z,29.50
2022-08-30T06:06:53.034Z,34.10
2022-08-30T06:09:20.115Z,32.60
2022-08-30T06:11:47.085Z,33.20
2022-08-30T06:14:14.645Z,32.90
2022-08-30T06:16:41.724Z,31.90
2022-08-30T06:19:09.619Z,32.10
2022-08-30T06:21:36.910Z,32.60
2022-08-30T06:24:05.041Z,32.40
2022-08-30T06:29:04.640Z,34.60
2022-08-30T06:31:33.469Z,33.00
2022-08-30T06:34:00.503Z,33.10
2022-08-30T06:36:27.589Z,33.80
2022-08-30T06:38:56.203Z,34.30
2022-08-30T06:41:24.611Z,35.80
2022-08-30T06:43:51.836Z,35.90
2022-08-30T06:46:23.030Z,34.40
2022-08-30T06:48:50.255Z,30.40
2022-08-30T06:51:21.577Z,34.70
2022-08-30T06:53:50.270Z,29.30
2022-08-30T06:56:18.979Z,33.20
2022-08-30T06:58:47.077Z,34.30
2022-08-30T07:01:24.905Z,32.60
2022-08-30T07:03:52.276Z,28.80
2022-08-30T07:06:20.125Z,33.50
2022-08-30T07:08:47.934Z,31.30
2022-08-30T07:11:15.025Z,30.30
2022-08-30T07:13:42.062Z,30.20
2022-08-30T07:16:10.694Z,30.00
2022-08-30T07:18:56.320Z,29.30
2022-08-30T07:21:28.112Z,28.70
2022-08-30T07:23:56.284Z,25.80
2022-08-30T07:26:25.562Z,29.70
2022-08-30T07:28:56.017Z,29.60
2022-08-30T07:31:24.052Z,29.40
2022-08-30T07:33:51.079Z,27.80
2022-08-30T07:36:18.308Z,27.90
2022-08-30T07:38:46.472Z,27.90
2022-08-30T07:41:17.506Z,28.10
2022-08-30T07:43:44.556Z,24.60
2022-08-30T07:46:11.707Z,27.80
2022-08-30T07:48:38.842Z,28.20
2022-08-30T07:51:09.287Z,28.50
2022-08-30T07:53:36.401Z,28.50
2022-08-30T07:56:04.741Z,25.90
2022-08-30T07:58:32.163Z,23.60
2022-08-30T08:00:59.733Z,23.70
2022-08-30T08:03:26.864Z,23.40
2022-08-30T08:05:54.794Z,21.20
2022-08-30T08:08:22.375Z,21.80
2022-08-30T08:10:49.547Z,20.40
2022-08-30T08:13:16.490Z,19.70
2022-08-30T08:15:44.294Z,19.70
2022-08-30T08:20:38.760Z,17.90
2022-08-30T08:23:05.962Z,18.50
2022-08-30T08:25:32.999Z,17.30
2022-08-30T08:28:00.023Z,17.10
2022-08-30T08:30:26.978Z,19.40
2022-08-30T08:32:54.112Z,19.00
2022-08-30T08:35:21.261Z,16.70
2022-08-30T08:37:48.368Z,17.20
2022-08-30T08:40:18.631Z,18.40
2022-08-30T08:43:21.095Z,17.20
2022-08-30T08:46:02.166Z,14.40
2022-08-30T08:48:51.840Z,13.70
2022-08-30T08:51:39.310Z,16.10
2022-08-30T08:54:19.314Z,16.10
2022-08-30T08:56:46.295Z,11.30
2022-08-30T08:59:15.046Z,15.00
2022-08-30T09:01:42.143Z,14.70
2022-08-30T09:04:14.679Z,14.90
2022-08-30T09:07:00.361Z,12.00
2022-08-30T09:09:32.281Z,10.90
2022-08-30T09:11:59.366Z,12.40
2022-08-30T09:14:30.319Z,13.50
2022-08-30T09:17:05.388Z,12.80
2022-08-30T09:19:37.640Z,7.20
2022-08-30T09:22:21.798Z,10.30
2022-08-30T09:24:50.425Z,5.50
2022-08-30T09:27:24.024Z,8.50
2022-08-30T09:29:53.908Z,1.90
2022-08-30T09:32:35.463Z,2.70
2022-08-30T09:35:03.909Z,1.00
2022-08-30T09:39:58.876Z,1.00
2022-08-30T09:42:28.888Z,1.00
2022-08-30T09:45:10.658Z,1.00
2022-08-30T09:47:41.352Z,1.00
2022-08-30T09:50:16.121Z,1.00
2022-08-30T09:52:55.269Z,1.00
2022-08-30T09:55:41.224Z,1.00
2022-08-30T09:58:15.600Z,1.00
2022-08-30T10:00:47.599Z,1.00
2022-08-30T10:03:40.194Z,1.00
2022-08-30T10:06:23.711Z,1.00
2022-08-30T10:09:11.885Z,1.00
2022-08-30T10:11:39.032Z,1.00
2022-08-30T10:14:28.294Z,1.00
2022-08-30T10:17:09.904Z,1.00
2022-08-30T10:19:45.404Z,1.00
2022-08-30T10:22:18.535Z,1.00
2022-08-30T10:24:51.413Z,1.00
2022-08-30T10:27:24.941Z,1.00
2022-08-30T10:29:59.282Z,1.00
2022-08-30T10:32:31.022Z,1.00
2022-08-30T10:35:03.924Z,1.00
2022-08-30T10:37:32.103Z,1.00
2022-08-30T10:40:22.675Z,1.00
2022-08-30T10:42:53.644Z,1.00
2022-08-30T10:45:21.036Z,1.00
2022-08-30T10:48:07.184Z,1.00
2022-08-30T10:53:33.985Z,1.00
2022-08-30T10:56:03.226Z,1.00
2022-08-30T10:58:31.547Z,1.00
2022-08-30T11:01:07.658Z,1.00
2022-08-30T11:03:54.380Z,1.00
2022-08-30T11:06:27.202Z,1.00
2022-08-30T11:09:16.183Z,1.00
2022-08-30T11:11:52.341Z,1.00
2022-08-30T11:14:20.508Z,1.00
2022-08-30T11:16:54.181Z,1.00
2022-08-30T11:19:24.103Z,1.00
2022-08-30T11:22:08.213Z,1.00
2022-08-30T11:25:01.350Z,1.00
2022-08-30T11:27:40.542Z,1.00
2022-08-30T11:30:26.766Z,1.00
2022-08-30T11:32:57.422Z,1.00
2022-08-30T11:35:45.980Z,1.00
2022-08-30T11:38:18.145Z,1.00
2022-08-30T11:40:50.145Z,1.00
2022-08-30T11:43:36.500Z,1.00
2022-08-30T11:46:24.331Z,1.00
2022-08-30T11:48:55.388Z,1.00
2022-08-30T11:51:41.567Z,1.00
2022-08-30T11:54:29.571Z,1.00
2022-08-30T11:56:59.351Z,1.00
2022-08-30T11:59:29.896Z,1.00
2022-08-30T12:01:58.184Z,1.00
2022-08-30T12:04:27.481Z,1.00
2022-08-30T12:07:00.452Z,1.00
2022-08-30T12:09:28.205Z,1.00
2022-08-30T12:12:03.674Z,1.00
2022-08-30T12:14:33.712Z,1.00
2022-08-30T12:17:19.447Z,1.00
2022-08-30T12:19:50.613Z,1.00
2022-08-30T12:22:18.828Z,1.00
2022-08-30T12:24:48.609Z,1.00
2022-08-30T12:27:34.080Z,1.00
2022-08-30T12:30:03.270Z,1.00
2022-08-30T12:34:59.900Z,1.00
2022-08-30T12:37:28.529Z,1.00
2022-08-30T12:42:27.423Z,1.00
2022-08-30T12:47:28.121Z,1.00
2022-08-30T12:49:55.563Z,1.00
2022-08-30T12:52:31.353Z,1.00
2022-08-30T12:55:16.334Z,1.00
2022-08-30T12:58:00.510Z,1.00
2022-08-30T13:00:30.925Z,1.00
2022-08-30T13:03:24.237Z,1.00
2022-08-30T13:05:53.196Z,1.00
2022-08-30T13:08:22.439Z,1.00
2022-08-30T13:10:51.169Z,1.00
2022-08-30T13:13:52.331Z,1.00
2022-08-30T13:16:22.922Z,1.00
2022-08-30T13:18:51.489Z,1.00
2022-08-30T13:21:22.008Z,1.00
2022-08-30T13:23:49.890Z,1.00
2022-08-30T13:26:20.496Z,1.00
2022-08-30T13:28:55.378Z,1.00
2022-08-30T13:31:22.762Z,1.00
2022-08-30T13:33:53.278Z,1.00
2022-08-30T13:36:23.019Z,1.00
2022-08-30T13:38:51.923Z,1.00
2022-08-30T13:41:21.183Z,1.00
2022-08-30T13:46:35.863Z,1.00
2022-08-30T13:49:43.230Z,1.00
2022-08-30T13:52:18.964Z,1.00
2022-08-30T13:54:41.265Z,1.00
2022-08-30T13:57:08.218Z,1.00
2022-08-30T14:02:11.462Z,1.00
2022-08-30T14:04:38.708Z,1.00
2022-08-30T14:07:16.858Z,1.00
2022-08-30T14:09:47.687Z,1.00
2022-08-30T14:12:15.150Z,1.00
2022-08-30T14:14:43.897Z,1.00
2022-08-30T14:17:11.216Z,1.00
2022-08-30T14:19:39.673Z,1.00
2022-08-30T14:22:06.643Z,1.00
2022-08-30T14:24:35.131Z,1.00
2022-08-30T14:27:02.010Z,1.00
2022-08-30T14:29:31.273Z,1.00
2022-08-30T14:32:00.066Z,1.00
2022-08-30T14:34:27.267Z,1.00
2022-08-30T14:36:55.584Z,1.00
2022-08-30T14:39:22.684Z,1.00
2022-08-30T14:41:50.907Z,1.00
2022-08-30T14:44:19.228Z,1.00
2022-08-30T14:46:46.481Z,1.00
2022-08-30T14:51:41.260Z,1.00
2022-08-30T14:54:08.834Z,1.00
2022-08-30T14:56:36.714Z,1.00
2022-08-30T14:59:03.690Z,1.00
2022-08-30T15:01:31.358Z,1.00
2022-08-30T15:03:59.018Z,1.00
2022-08-30T15:06:27.442Z,1.00
2022-08-30T15:08:55.112Z,1.00
2022-08-30T15:11:23.343Z,1.00
2022-08-30T15:13:52.966Z,1.00
2022-08-30T15:16:20.312Z,1.00
2022-08-30T15:18:47.476Z,1.00
2022-08-30T15:21:14.957Z,1.00
2022-08-30T15:23:42.015Z,1.00
2022-08-30T15:26:09.819Z,1.00
2022-08-30T15:31:08.720Z,1.00
2022-08-30T15:33:37.370Z,1.00
2022-08-30T15:36:04.970Z,1.00
2022-08-30T15:38:32.799Z,1.00
2022-08-30T15:41:03.420Z,1.00
2022-08-30T15:43:30.407Z,1.00
2022-08-30T15:46:13.500Z,1.00
2022-08-30T15:48:45.337Z,1.00
2022-08-30T15:51:13.398Z,1.00
2022-08-30T15:53:40.640Z,1.00
2022-08-30T15:56:07.664Z,1.00
2022-08-30T15:58:35.191Z,1.00
2022-08-30T16:01:04.906Z,1.00
2022-08-30T16:03:32.597Z,1.00
2022-08-30T16:05:59.933Z,1.00
2022-08-30T16:08:29.644Z,1.00
2022-08-30T16:10:56.725Z,1.00
2022-08-30T16:13:23.668Z,1.00
2022-08-30T16:15:50.653Z,1.00
2022-08-30T16:18:17.796Z,1.00
2022-08-30T16:20:44.765Z,1.00
2022-08-30T16:23:12.033Z,1.00
2022-08-30T16:25:40.908Z,1.00
2022-08-30T16:28:09.549Z,1.00
2022-08-30T16:30:36.729Z,1.00
2022-08-30T16:33:03.867Z,1.00
2022-08-30T16:35:32.995Z,1.00
2022-08-30T16:38:00.010Z,1.00
2022-08-30T16:40:27.471Z,1.00
2022-08-30T16:42:54.438Z,1.00
2022-08-30T16:45:21.343Z,1.00
2022-08-30T16:47:51.031Z,1.00
2022-08-30T16:50:21.492Z,1.00
2022-08-30T16:52:48.404Z,1.00
2022-08-30T16:55:15.854Z,1.00
2022-08-30T16:57:42.775Z,1.00
2022-08-30T17:00:13.414Z,1.00
2022-08-30T17:02:42.644Z,1.00
2022-08-30T17:05:21.073Z,1.00
2022-08-30T17:07:48.161Z,1.00
2022-08-30T17:10:15.156Z,1.00
2022-08-30T17:12:47.869Z,1.00
2022-08-30T17:15:15.286Z,1.00
2022-08-30T17:17:43.101Z,1.00
2022-08-30T17:20:10.589Z,1.00
2022-08-30T17:22:37.671Z,1.00
2022-08-30T17:25:05.364Z,1.00
2022-08-30T17:27:32.572Z,1.00
2022-08-30T17:29:59.506Z,1.00
2022-08-30T17:32:26.731Z,1.00
2022-08-30T17:34:54.317Z,1.00
2022-08-30T17:37:21.435Z,1.00
2022-08-30T17:39:49.090Z,1.00
2022-08-30T17:42:16.224Z,1.00
2022-08-30T17:44:43.178Z,1.00
2022-08-30T17:47:11.009Z,1.00
2022-08-30T17:49:38.654Z,1.00
2022-08-30T17:52:05.808Z,1.00
2022-08-30T17:54:34.378Z,1.00
2022-08-30T17:57:01.915Z,1.00
2022-08-30T17:59:29.275Z,1.00
2022-08-30T18:02:00.231Z,1.00
2022-08-30T18:04:27.834Z,1.00
2022-08-30T18:06:55.170Z,1.00
2022-08-30T18:09:22.325Z,1.00
2022-08-30T18:11:49.601Z,1.00
2022-08-30T18:14:16.816Z,1.00
2022-08-30T18:16:49.841Z,1.00
2022-08-30T18:19:21.014Z,1.00
2022-08-30T18:21:48.257Z,1.00
2022-08-30T18:24:16.167Z,1.00
2022-08-30T18:26:43.471Z,1.00
2022-08-30T18:29:10.992Z,1.00
2022-08-30T18:31:38.721Z,1.00
2022-08-30T18:34:07.031Z,1.00
2022-08-30T18:36:39.548Z,1.00
2022-08-30T18:39:07.053Z,1.00
2022-08-30T18:41:34.432Z,1.00
2022-08-30T18:44:23.860Z,1.00
2022-08-30T18:46:56.151Z,1.00
2022-08-30T18:49:27.480Z,1.00
2022-08-30T18:51:54.738Z,1.00
2022-08-30T18:54:21.990Z,1.00
2022-08-30T18:56:49.849Z,1.00
2022-08-30T18:59:18.721Z,1.00
2022-08-30T19:01:48.678Z,1.00
2022-08-30T19:04:22.270Z,1.00
2022-08-30T19:06:57.197Z,1.00
2022-08-30T19:09:24.355Z,1.00
2022-08-30T19:11:54.423Z,1.00
2022-08-30T19:14:21.689Z,1.00
2022-08-30T19:16:48.823Z,1.00
2022-08-30T19:19:16.097Z,1.00
2022-08-30T19:21:43.116Z,1.00
2022-08-30T19:24:12.032Z,1.00
2022-08-30T19:26:39.363Z,1.00
2022-08-30T19:29:06.640Z,1.00
2022-08-30T19:31:33.716Z,1.00
2022-08-30T19:34:00.789Z,1.00
2022-08-30T19:36:28.880Z,1.00
2022-08-30T19:38:56.131Z,1.00
2022-08-30T19:41:23.394Z,1.00
2022-08-30T19:43:51.397Z,1.00
2022-08-30T19:46:18.476Z,1.00
2022-08-30T19:48:45.548Z,1.00
2022-08-30T19:51:13.907Z,1.00
2022-08-30T19:53:41.829Z,1.00
2022-08-30T19:56:09.071Z,1.00
2022-08-30T19:58:36.180Z,1.00
2022-08-30T20:01:11.608Z,1.00
2022-08-30T20:03:47.531Z,1.00
2022-08-30T20:06:19.700Z,1.00
2022-08-30T20:08:47.533Z,1.00
2022-08-30T20:11:15.586Z,1.00
2022-08-30T20:13:42.964Z,1.00
2022-08-30T20:16:11.744Z,1.00
2022-08-30T20:18:41.505Z,1.00
2022-08-30T20:21:13.420Z,1.00
2022-08-30T20:23:42.052Z,1.00
2022-08-30T20:26:10.952Z,1.00
2022-08-30T20:28:38.049Z,1.00
2022-08-30T20:31:05.886Z,1.00
2022-08-30T20:33:37.478Z,1.00
2022-08-30T20:36:05.930Z,1.00
2022-08-30T20:38:33.020Z,1.00
2022-08-30T20:41:01.209Z,1.00
2022-08-30T20:43:29.259Z,1.00
2022-08-30T20:45:56.560Z,1.00
2022-08-30T20:48:23.641Z,1.00
2022-08-30T20:50:50.579Z,1.00
2022-08-30T20:53:18.190Z,1.00
2022-08-30T20:55:45.989Z,1.00
2022-08-30T20:58:14.082Z,1.00
2022-08-30T21:00:45.706Z,1.00
2022-08-30T21:03:26.346Z,1.00
2022-08-30T21:05:55.809Z,1.00
2022-08-30T21:08:22.901Z,1.00
2022-08-30T21:10:50.019Z,1.00
2022-08-30T21:13:17.316Z,1.00
2022-08-30T21:15:46.048Z,1.00
2022-08-30T21:18:14.027Z,1.00
2022-08-30T21:20:41.308Z,1.00
2022-08-30T21:23:08.235Z,1.00
2022-08-30T21:25:37.756Z,1.00
2022-08-30T21:30:32.370Z,1.00
2022-08-30T21:33:00.343Z,1.00
2022-08-30T21:35:46.599Z,1.00
2022-08-30T21:38:14.289Z,1.00
2022-08-30T21:40:41.528Z,1.00
2022-08-30T21:43:08.745Z,1.00
2022-08-30T21:45:38.977Z,1.00
2022-08-30T21:48:06.060Z,1.00
2022-08-30T21:50:33.310Z,1.00
2022-08-30T21:53:00.789Z,1.00
2022-08-30T21:55:27.818Z,1.00
2022-08-30T21:57:54.997Z,1.00
2022-08-30T22:00:22.162Z,1.00
2022-08-30T22:02:52.966Z,1.00
2022-08-30T22:05:20.602Z,1.00
2022-08-30T22:07:47.582Z,1.00
2022-08-30T22:10:14.703Z,1.00
2022-08-30T22:12:41.738Z,1.00
2022-08-30T22:15:09.239Z,1.00
2022-08-30T22:17:36.274Z,1.00
2022-08-30T22:20:05.497Z,1.00
2022-08-30T22:22:32.558Z,1.30
2022-08-30T22:24:59.772Z,1.70
2022-08-30T22:27:27.072Z,1.00
2022-08-30T22:29:54.189Z,1.00
2022-08-30T22:32:21.532Z,3.00
2022-08-30T22:37:17.357Z,1.00
2022-08-30T22:39:44.480Z,1.00
2022-08-30T22:42:11.628Z,1.00
2022-08-30T22:44:38.622Z,1.00
2022-08-30T22:47:06.417Z,1.00
2022-08-30T22:49:33.553Z,1.00
2022-08-30T22:54:27.980Z,1.00
2022-08-30T22:56:54.980Z,1.00
2022-08-30T22:59:22.547Z,1.20
2022-08-30T23:01:58.700Z,1.00
2022-08-30T23:04:25.840Z,1.40
2022-08-30T23:06:52.981Z,1.00
2022-08-30T23:09:20.124Z,2.30
2022-08-30T23:11:47.383Z,2.50
2022-08-30T23:14:14.388Z,2.90
2022-08-30T23:16:41.443Z,3.30
2022-08-30T23:19:09.107Z,4.20
2022-08-30T23:21:36.182Z,5.60
2022-08-30T23:24:22.030Z,5.90
2022-08-30T23:27:07.730Z,1.60
2022-08-30T23:29:53.372Z,2.90
2022-08-30T23:32:40.045Z,4.90
2022-08-30T23:35:29.384Z,2.90
2022-08-30T23:38:16.595Z,3.50
2022-08-30T23:41:04.731Z,3.10
2022-08-30T23:43:50.580Z,3.80
2022-08-30T23:46:36.135Z,1.00
2022-08-30T23:49:21.853Z,1.00
2022-08-30T23:52:07.422Z,5.10
2022-08-30T23:54:54.881Z,4.40
2022-08-30T23:57:44.001Z,6.00
